Terminal Aerodrome Forecast
Issued by NWS Sioux Falls, SD

Home | Current Version | Previous Version | Graphics & Text | Print | Product List | Glossary On
Versions: 1 2 3 4 5 6 7 8 9 10 11 12 13 14
000
FTUS43 KFSD 200500
TAFSUX
TAF
KSUX 200522Z 2006/2106 VRB03KT P6SM BKN080
     FM200900 VRB03KT P6SM -SHRA OVC060
     FM201500 09006KT P6SM BKN120
     FM202000 14007KT P6SM BKN120=

USA.gov is the U.S. government's official web portal to all federal, state and local government web resources and services.